Clover Valley, Nevada Weather observations

Data are for 10 minute period ending at time listed.
 Day   Time   Solar   Ave.   Ave.  Ave.  Vector  Max.   Baro.   Total    
  of    of     Rad.   Air    Rel.  Wind   Wind   Wind  Press.  Precip.   
Year   Day            Temp.  Hum.  Speed  Dir.   Gust                    
2015   (PST)  Kw/m2    F      %     mph   deg.    mph    mb.     in.     
-------------------------------------------------------------------------
 214    3:20   0.00   49.7    64    3.4   240     4.8   828.4    0.00 
 214    3:30   0.00   53.7    53    2.9   269     4.7   828.4    0.00 
 214    3:40   0.00   54.1    51    2.2   262     4.2   828.5    0.00 
 214    3:50   0.00   51.9    57    1.7   287     3.7   828.7    0.00 
 214    4:00   0.00   49.9    64    3.3   323     5.0   828.7    0.00 
 214    4:10   0.00   50.3    64    1.8    26     3.5   828.7    0.00 
 214    4:20   0.00   49.4    71    3.5    61     5.3   828.8    0.00 
 214    4:30   0.00   47.6    72    2.8    38     4.0   828.8    0.00 
 214    4:40   0.00   47.3    73    2.0   346     3.3   828.8    0.00 
 214    4:50   0.01   47.5    77    2.7   314     3.2   828.8    0.00 
 214    5:00   0.02   48.5    73    3.7   318     4.9   828.9    0.00 
 214    5:10   0.02   49.5    69    4.6   317     6.1   828.9    0.00 
 214    5:20   0.01   50.4    67    4.4   318     6.1   829.0    0.00 
 214    5:30   0.00   51.2    68    4.0   321     5.6   829.0    0.00 
 214    5:40   0.02   53.1    66    3.8   331     6.1   829.1    0.00 
 214    5:50   0.04   54.0    68    1.1    41     3.1   829.2    0.00 
 214    6:00   0.03   55.0    65    3.2   359     4.7   829.2    0.00 
 214    6:10   0.07   55.7    66    4.2   342     5.3   829.3    0.00 
 214    6:20   0.10   57.1    63    4.2   343     6.0   829.4    0.00 
 214    6:30   0.13   59.1    61    3.3   346     4.5   829.5    0.00 
 214    6:40   0.15   60.2    62    3.9   341     5.2   829.7    0.00 
 214    6:50   0.16   62.1    58    3.9   345     5.6   829.8    0.00 
 214    7:00   0.15   62.0    62    4.8   335     6.8   829.8    0.00 
 214    7:10   0.17   62.3    61    4.0   338     6.3   829.9    0.00 
 214    7:20   0.22   63.7    59    3.6   345     5.2   829.9    0.00 
 214    7:30   0.30   66.2    52    4.8   354     7.7   829.9    0.00 
 214    7:40   0.38   67.9    50    4.9   348     7.5   830.0    0.00 
 214    7:50   0.35   68.8    45    6.0   356     9.6   830.0    0.00 
 214    8:00   0.32   69.3    44    5.6   356     9.2   829.9    0.00 
 214    8:10   0.34   70.0    41    5.3   359     7.6   830.0    0.00 
 214    8:20   0.43   71.4    39    4.8     9     7.2   829.9    0.00 
 214    8:30   0.38   71.6    38    4.0     9     6.9   829.7    0.00 
 214    8:40   0.06   73.3    37    3.2     5     7.0   829.7    0.00 
 214    8:50   0.01   73.2    34    3.4    24     6.0   829.6    0.00 
 214    9:00   0.43   74.6    33    2.8     5     5.6   829.5    0.00 
 214    9:10   0.66   76.1    32    2.4    37     5.7   829.3    0.00 
 214    9:20   0.70   78.0    30    2.1   334     4.2   829.2    0.00 
 214    9:30   0.60   78.0    31    2.0   360     5.3   829.1    0.00 
 214    9:40   0.57   77.3    32    2.7     3     5.8   828.9    0.00 
 214    9:50   0.59   77.1    31    3.0    51     5.1   828.8    0.00 
 214   10:00   0.50   77.9    31    2.0    12     3.9   828.7    0.00 
 214   10:10   0.51   78.1    30    1.6    54     3.4   828.6    0.00 
 214   10:20   0.47   78.5    30    1.5    57     3.7   828.5    0.00 
 214   10:30   0.52   79.0    27    1.7    88     3.1   828.6    0.00 
 214   10:40   0.52   80.1    26    0.8    12     2.3   828.5    0.00 
 214   10:50   0.54   81.5    24    1.3   281     3.0   828.4    0.00 
 214   11:00   0.47   81.3    23    0.8    69     1.8   828.2    0.00 
 214   11:10   0.70   82.5    23    1.8   311     3.0   828.1    0.00 
 214   11:20   0.69   83.5    23    1.5   298     2.9   828.0    0.00 
 214   11:30   0.90   84.8    21    1.9   278     5.4   827.9    0.00 
 214   11:40   0.76   84.8    21    1.7    17     4.1   827.8    0.00 
 214   11:50   0.67   84.2    19    3.0    52     6.9   827.7    0.00 
 214   12:00   0.99   84.8    20    3.3   159     8.1   827.6    0.00 
 214   12:10   0.43   85.2    18    2.8   226     7.5   827.5    0.00 
 214   12:20   0.60   84.7    18    2.1    50     5.0   827.4    0.00 
 214   12:30   0.91   86.1    17    2.4    68     6.0   827.3    0.00 
 214   12:40   0.88   86.0    17    2.4    56     4.9   827.2    0.00 
 214   12:50   0.77   87.3    15    1.5    73     5.4   827.3    0.00 
 214   13:00   0.63   86.9    16    2.4   116     7.9   827.2    0.00 
 214   13:10   0.82   87.9    14    2.1    99     4.9   827.1    0.00 
 214   13:20   0.87   89.1    14    3.2   225     8.0   826.9    0.00 
 214   13:30   0.91   89.0    14    3.5   140     6.1   826.9    0.00 
 214   13:40   0.91   89.0    15    3.6   145     6.4   826.8    0.00 
 214   13:50   0.86   90.4    14    3.3   242     6.6   826.6    0.00 
 214   14:00   0.71   89.8    16    3.3   337    11.4   826.6    0.00 
 214   14:10   0.37   87.3    16    4.7    24    10.9   826.6    0.00 
 214   14:20   0.22   84.2    21   12.6    25    24.8   826.6    0.00 
 214   14:30   0.20   78.8    26   23.1    55    40.0   826.4    0.00 
 214   14:40   0.21   78.5    24   22.8    46    34.0   826.3    0.00 
 214   14:50   0.22   78.0    25   19.1    48    36.5   826.2    0.00 
 214   15:00   0.19   78.8    24   11.6    30    17.5   826.0    0.00 
 214   15:10   0.22   79.2    23   14.0    31    25.9   825.8    0.00 
 214   15:20   0.22   80.2    21   10.7    26    19.1   825.7    0.00 
 214   15:30   0.19   81.1    22    6.2    15     9.5   825.7    0.00 
 214   15:40   0.18   82.8    19    4.3   359    10.2   825.6    0.00 
 214   15:50   0.19   79.7    27    5.4   331     8.5   825.6    0.00 
 214   16:00   0.18   79.1    26    5.4   313     7.9   825.5    0.00 
 214   16:10   0.16   80.1    26    2.8   326     5.0   825.5    0.00 
 214   16:20   0.15   80.8    24    5.0   292    10.2   825.5    0.00 
 214   16:30   0.13   79.5    24    7.0   282    10.2   825.4    0.00 
 214   16:40   0.13   78.2    27    5.8   291     7.7   825.4    0.00 
 214   16:50   0.14   78.0    29    5.1   289     7.1   825.3    0.00 
 214   17:00   0.12   78.7    28    4.3   280     6.4   825.3    0.00 
 214   17:10   0.10   78.4    29    3.9   280     5.3   825.2    0.00 
 214   17:20   0.08   78.2    31    2.7   299     4.2   825.3    0.00 
 214   17:30   0.05   78.5    27    3.0   300     4.0   825.3    0.00 
 214   17:40   0.04   78.9    29    3.4   232     4.2   825.3    0.00 
 214   17:50   0.03   78.3    31    4.2   190     5.3   825.4    0.00 
 214   18:00   0.03   77.8    28    3.6   202     5.0   825.4    0.00 
 214   18:10   0.02   79.3    20    3.6   249     6.4   825.4    0.00 
 214   18:20   0.01   79.6    25    2.6   181     5.3   825.5    0.00 
 214   18:30   0.01   76.1    31    4.0   135     5.6   825.5    0.00 
 214   18:40   0.01   74.6    34    3.9   145     5.3   825.6    0.00 
 214   18:50   0.00   75.1    27    6.3   171    10.0   825.7    0.00 
 214   19:00   0.00   76.5    26    7.5   187    11.6   825.8    0.00 
 214   19:10   0.00   77.0    24    8.1   221    12.1   825.9    0.00 
 214   19:20   0.00   76.1    27    5.3   178     9.4   826.0    0.00 
 214   19:30   0.00   75.1    27    6.8   233    15.8   826.0    0.00 
 214   19:40   0.00   75.7    26    7.6   215    12.6   826.1    0.00 
 214   19:50   0.00   74.7    28    7.4   196    14.0   826.3    0.00 
 214   20:00   0.00   74.9    28    7.1   191    12.2   826.5    0.00 
 214   20:10   100.00  99999.0   99999  99999.0   99999   99999.0   99999.0   99999.00 
 214   20:20   0.00   74.9    29    7.8   216    11.5   826.7    0.00 
 214   20:30   0.00   74.6    29    6.5   207    13.7   826.7    0.00 
 214   20:40   0.00   75.1    28   10.0   242    20.0   826.7    0.00 
 214   20:50   0.00   75.0    29   15.2   252    22.6   826.7    0.00 
 214   21:00   0.00   74.8    29   16.0   250    23.5   826.7    0.00 
 214   21:10   0.00   75.3    29   15.3   255    22.6   826.8    0.00 
 214   21:20   0.00   74.9    29   13.2   257    21.8   826.8    0.00 
 214   21:30   0.00   74.5    30   10.9   270    18.3   826.9    0.00 
 214   21:40   0.00   73.7    31    5.9   244     9.1   826.8    0.00 
 214   21:50   0.00   73.4    31    5.4   280    10.2   826.8    0.00 
 214   22:00   0.00   69.6    44    3.8   299     6.5   826.9    0.00 
 214   22:10   0.00   62.1    67    3.5    39     9.3   827.0    0.00 
 214   22:20   0.00   67.5    45    3.7   342    11.2   827.1    0.00 
 214   22:30   0.00   70.8    36    4.7   290    14.4   827.1    0.00 
 214   22:40   0.00   72.7    32    6.6   294    13.0   827.0    0.00 
 214   22:50   0.00   73.8    31   10.7   271    19.3   827.0    0.00 
 214   23:00   0.00   73.9    30   11.4   267    21.1   826.9    0.00 
 214   23:10   0.00   74.2    30   11.3   264    19.4   827.0    0.00 
 214   23:20   0.00   73.0    32    5.3   296    10.4   827.1    0.00 
 214   23:30   0.00   73.8    30    4.2   282    14.7   827.1    0.00 
 214   23:40   0.00   74.0    30    6.5   281    15.0   827.1    0.00 
 214   23:50   0.00   73.8    31    9.5   261    15.8   827.1    0.00 
 215    0:00   0.00   73.4    31   10.6   256    16.0   827.1    0.00 
 215    0:10   0.00   73.5    31    9.1   253    14.6   827.0    0.00 
 215    0:20   0.00   73.6    30   11.4   235    17.2   827.1    0.00 
 215    0:30   0.00   72.1    33    9.9   220    14.2   827.2    0.00 
 215    0:40   0.00   71.9    33   11.0   225    18.3   827.2    0.00 
 215    0:50   0.00   72.1    32   13.5   228    21.3   827.3    0.00 
 215    1:00   0.00   71.9    32   11.7   228    19.5   827.5    0.00 
 215    1:10   0.00   71.1    33    9.7   210    14.8   827.6    0.00 
 215    1:20   0.00   71.0    33    9.8   205    16.4   827.6    0.00 
 215    1:30   0.00   70.7    33   11.9   200    22.6   827.6    0.00 
 215    1:40   0.00   71.0    33   12.5   206    20.3   827.5    0.00 
 215    1:50   0.00   71.0    33   14.7   214    22.1   827.5    0.00 
 215    2:00   0.00   71.0    32   14.1   235    20.1   827.5    0.00 
 215    2:10   0.00   70.6    32   10.5   228    15.9   827.6    0.00 
 215    2:20   0.00   70.2    33    9.7   222    14.0   827.5    0.00 
 215    2:30   0.00   70.2    33   10.1   227    14.8   827.5    0.00 
 215    2:40   0.00   69.9    34    8.4   215    14.8   827.5    0.00 
 215    2:50   0.00   69.5    34    8.5   218    13.6   827.5    0.00 
 215    3:00   0.00   69.5    35    8.8   218    13.0   827.4    0.00 
 215    3:10   0.00   69.3    36    6.1   229     8.3   827.4    0.00 

Return to Clover Valley graphs page.


Western Regional Climate Center,wrcc@dri.edu